Архив погоды в Казанской

Метеограмма Казанская
Среда, 15 Августа
Время местн. Темп Ветер Видим Явления Облачность нижн/средн/верх Атм. давл. Влжн Точка росы ВНГО R Сост. почвы Tg s
Напр Скр Прв ур.ст ур.м изм
00:00 +16.4° З,С-З 1 - 20 км - ясно 757 763 +0.5 92% +15.1° более 2.5 км - - - -
Вторник, 14 Августа
Время местн. Темп Ветер Видим Явления Облачность нижн/средн/верх Атм. давл. Влжн Точка росы ВНГО R Сост. почвы Tg s
Напр Скр Прв ур.ст ур.м изм
21:00 +18.8° З 1 - 20 км - ясно 756 763 +1 88% +16.8° более 2.5 км - - - -
18:00 +28.5° З,С-З 1 - 20 км - ясно 755 762 +0.1 32% +10.1° более 2.5 км - - - -
15:00 +29.4° З 2 - 20 км - ясно 755 761 -0.4 30% +10° более 2.5 км - - - -
12:00 +28° З 2 - 20 км - незначительная облачность 756 762 +0.1 34% +10.8° 1 км - - - -
09:00 +22.3° З,С-З 1 - 20 км - ясно 756 762 +0.5 64% +15.2° более 2.5 км - - - -
06:00 +14.6° С-З 1 - 20 км - ясно 755 762 +0.5 92% +13.3° более 2.5 км - Влажная (без луж) - -
03:00 +16.4° С,С-З 1 - 20 км - ясно 755 761 +0.5 92% +15.1° более 2.5 км - - - -
00:00 +18.7° С-З 1 - 20 км - ясно 754 761 +0.3 86% +16.3° более 2.5 км - - - -
Понедельник, 13 Августа
Время местн. Темп Ветер Видим Явления Облачность нижн/средн/верх Атм. давл. Влжн Точка росы ВНГО R Сост. почвы Tg s
Напр Скр Прв ур.ст ур.м изм
21:00 +21.8° З,С-З 1 - 20 км - ясно 754 760 +0.9 63% +14.5° более 2.5 км - - - -
18:00 +29° З 1 - 20 км - ясно 753 759 -0.4 35% +12° более 2.5 км - - - -
15:00 +30.3° З,С-З 2 - 20 км - переменная облачность 754 760 -0.9 33% +12.3° 1.5 км - - - -
12:00 +29.2° З,С-З 1 - 20 км - переменная облачность 754 760 -0.5 39% +14° - - - - -
09:00 +23° З 1 - 20 км - переменная облачность 755 761 +0.2 66% +16.2° - - - - -
06:00 +16.7° штиль 0 - 20 км - облачно с прояснениями 755 761 -0.4 96% +16° - - Влажная (без луж) - -
03:00 +17.7° штиль 0 - 20 км небо без изменений {гроза} переменная облачность 755 761 +0.1 96% +17° более 2.5 км - - - -
00:00 +19.6° Ю,Ю-В 3 - 20 км небо без изменений {гроза} переменная облачность 755 761 +0.5 81% +16.2° 1 км - - - -
Воскресенье, 12 Августа
Время местн. Темп Ветер Видим Явления Облачность нижн/средн/верх Атм. давл. Влжн Точка росы ВНГО R Сост. почвы Tg s
Напр Скр Прв ур.ст ур.м изм
21:00 +21.1° Ю,Ю-З 2 - 20 км гроза без осадков {ливневые осадки} облачно с прояснениями 755 762 +0.5 69% +15.3° 1 км - - - -
18:00 +31.3° С-В 1 - 20 км - переменная облачность 755 761 -0.9 28% +10.4° 1.5 км - - - -
15:00 +32° С,С-З 1 - 20 км - переменная облачность 756 762 -1.4 27% +10.8° 1.5 км - - - -
12:00 +29.8° З 1 - 20 км - переменная облачность 757 763 -1.1 33% +11.6° 1.5 км - - - -
09:00 +22.7° З 1 - 20 км - облачно 758 764 -0.6 58% +14° более 2.5 км - - - -
06:00 +14.8° С-З 1 - 20 км - облачно 759 765 -0.4 96% +14.1° более 2.5 км - Сухая (без трещин) - -
03:00 +15.3° С-З 1 - 20 км - ясно 759 765 -0.8 94% +14.4° более 2.5 км - - - -
00:00 +17.4° штиль 0 - 20 км - облачно 760 766 -0.2 92% +16.1° более 2.5 км - - - -
Суббота, 11 Августа
Время местн. Темп Ветер Видим Явления Облачность нижн/средн/верх Атм. давл. Влжн Точка росы ВНГО R Сост. почвы Tg s
Напр Скр Прв ур.ст ур.м изм
21:00 +19.5° штиль 0 - 20 км - облачно 760 766 0 84% +16.8° более 2.5 км - - - -